sensor_id;sensor_type;location;lat;lon;timestamp;pressure;altitude;pressure_sealevel;temperature;humidity
60487;BME280;46327;39.866;-0.072;2022-07-12T00:00:43;101859.89;;;27.38;42.56
60487;BME280;46327;39.866;-0.072;2022-07-12T00:03:10;101858.55;;;27.65;42.12
60487;BME280;46327;39.866;-0.072;2022-07-12T00:05:38;101860.74;;;26.89;43.19
60487;BME280;46327;39.866;-0.072;2022-07-12T00:08:05;101859.01;;;27.61;42.13
60487;BME280;46327;39.866;-0.072;2022-07-12T00:10:33;101859.85;;;27.21;42.44
60487;BME280;46327;39.866;-0.072;2022-07-12T00:13:01;101856.21;;;27.12;42.67
60487;BME280;46327;39.866;-0.072;2022-07-12T00:15:28;101853.40;;;27.89;42.34
60487;BME280;46327;39.866;-0.072;2022-07-12T00:17:56;101852.57;;;27.98;41.49
60487;BME280;46327;39.866;-0.072;2022-07-12T00:20:23;101850.13;;;27.47;42.22
60487;BME280;46327;39.866;-0.072;2022-07-12T00:22:50;101852.42;;;27.01;42.88
60487;BME280;46327;39.866;-0.072;2022-07-12T00:25:18;101855.08;;;27.12;43.19
60487;BME280;46327;39.866;-0.072;2022-07-12T00:27:46;101857.15;;;27.08;43.30
60487;BME280;46327;39.866;-0.072;2022-07-12T00:30:13;101860.79;;;27.15;42.96
60487;BME280;46327;39.866;-0.072;2022-07-12T00:32:40;101858.25;;;27.51;41.91
60487;BME280;46327;39.866;-0.072;2022-07-12T00:35:08;101858.69;;;27.87;41.84
60487;BME280;46327;39.866;-0.072;2022-07-12T00:37:35;101861.14;;;27.54;42.16
60487;BME280;46327;39.866;-0.072;2022-07-12T00:40:04;101864.20;;;27.39;41.75
60487;BME280;46327;39.866;-0.072;2022-07-12T00:42:32;101868.24;;;27.84;41.63
60487;BME280;46327;39.866;-0.072;2022-07-12T00:45:00;101867.13;;;28.03;41.32
60487;BME280;46327;39.866;-0.072;2022-07-12T00:47:32;101868.02;;;27.49;41.77
60487;BME280;46327;39.866;-0.072;2022-07-12T00:50:02;101867.27;;;27.15;42.45
60487;BME280;46327;39.866;-0.072;2022-07-12T00:52:29;101868.64;;;27.76;41.77
60487;BME280;46327;39.866;-0.072;2022-07-12T00:54:57;101867.13;;;27.63;41.81
60487;BME280;46327;39.866;-0.072;2022-07-12T00:57:25;101868.25;;;27.48;41.99
60487;BME280;46327;39.866;-0.072;2022-07-12T00:59:52;101868.60;;;27.39;41.74
60487;BME280;46327;39.866;-0.072;2022-07-12T01:02:20;101865.60;;;27.52;41.49
60487;BME280;46327;39.866;-0.072;2022-07-12T01:04:47;101861.01;;;27.52;41.10
60487;BME280;46327;39.866;-0.072;2022-07-12T01:07:15;101858.65;;;27.20;41.31
60487;BME280;46327;39.866;-0.072;2022-07-12T01:09:43;101859.61;;;27.22;41.12
60487;BME280;46327;39.866;-0.072;2022-07-12T01:12:10;101857.05;;;27.27;41.16
60487;BME280;46327;39.866;-0.072;2022-07-12T01:14:38;101856.31;;;27.04;41.31
60487;BME280;46327;39.866;-0.072;2022-07-12T01:17:08;101854.84;;;27.18;40.86
60487;BME280;46327;39.866;-0.072;2022-07-12T01:19:35;101855.32;;;27.56;40.05
60487;BME280;46327;39.866;-0.072;2022-07-12T01:22:06;101850.97;;;27.33;40.32
60487;BME280;46327;39.866;-0.072;2022-07-12T01:24:35;101848.24;;;27.10;40.67
60487;BME280;46327;39.866;-0.072;2022-07-12T01:27:04;101849.56;;;27.06;41.01
60487;BME280;46327;39.866;-0.072;2022-07-12T01:29:32;101848.26;;;27.03;41.20
60487;BME280;46327;39.866;-0.072;2022-07-12T01:32:00;101847.79;;;26.79;42.06
60487;BME280;46327;39.866;-0.072;2022-07-12T01:34:28;101854.03;;;26.77;42.77
60487;BME280;46327;39.866;-0.072;2022-07-12T01:36:56;101849.84;;;26.89;41.52
60487;BME280;46327;39.866;-0.072;2022-07-12T01:39:23;101856.41;;;27.21;41.39
60487;BME280;46327;39.866;-0.072;2022-07-12T01:41:51;101855.06;;;26.62;41.34
60487;BME280;46327;39.866;-0.072;2022-07-12T01:44:19;101857.47;;;26.73;41.05
60487;BME280;46327;39.866;-0.072;2022-07-12T01:46:46;101860.26;;;26.32;41.19
60487;BME280;46327;39.866;-0.072;2022-07-12T01:49:14;101863.09;;;26.16;40.94
60487;BME280;46327;39.866;-0.072;2022-07-12T01:51:43;101859.31;;;26.73;40.94
60487;BME280;46327;39.866;-0.072;2022-07-12T01:54:09;101856.31;;;26.46;40.97
60487;BME280;46327;39.866;-0.072;2022-07-12T01:56:37;101855.26;;;26.79;41.03
60487;BME280;46327;39.866;-0.072;2022-07-12T01:59:04;101856.37;;;26.55;41.05
60487;BME280;46327;39.866;-0.072;2022-07-12T02:01:32;101861.32;;;26.81;40.71
60487;BME280;46327;39.866;-0.072;2022-07-12T02:04:02;101859.79;;;27.33;40.41
60487;BME280;46327;39.866;-0.072;2022-07-12T02:06:30;101862.39;;;26.79;40.84
60487;BME280;46327;39.866;-0.072;2022-07-12T02:08:57;101858.46;;;26.71;41.44
60487;BME280;46327;39.866;-0.072;2022-07-12T02:11:25;101858.78;;;26.92;41.26
60487;BME280;46327;39.866;-0.072;2022-07-12T02:13:52;101857.24;;;26.61;41.71
60487;BME280;46327;39.866;-0.072;2022-07-12T02:16:19;101859.22;;;26.52;41.80
60487;BME280;46327;39.866;-0.072;2022-07-12T02:18:46;101860.52;;;26.61;41.72
60487;BME280;46327;39.866;-0.072;2022-07-12T02:21:13;101861.83;;;26.17;41.76
60487;BME280;46327;39.866;-0.072;2022-07-12T02:23:41;101861.39;;;26.31;41.82
60487;BME280;46327;39.866;-0.072;2022-07-12T02:26:08;101861.25;;;26.86;41.44
60487;BME280;46327;39.866;-0.072;2022-07-12T02:28:35;101862.80;;;26.91;41.38
60487;BME280;46327;39.866;-0.072;2022-07-12T02:31:02;101864.09;;;26.65;41.77
60487;BME280;46327;39.866;-0.072;2022-07-12T02:33:30;101862.91;;;26.44;41.72
60487;BME280;46327;39.866;-0.072;2022-07-12T02:35:56;101866.68;;;26.66;41.81
60487;BME280;46327;39.866;-0.072;2022-07-12T02:38:24;101865.49;;;26.52;42.22
60487;BME280;46327;39.866;-0.072;2022-07-12T02:40:51;101867.14;;;26.51;42.35
60487;BME280;46327;39.866;-0.072;2022-07-12T02:43:19;101873.33;;;26.63;42.07
60487;BME280;46327;39.866;-0.072;2022-07-12T02:45:46;101872.62;;;26.37;42.45
60487;BME280;46327;39.866;-0.072;2022-07-12T02:48:14;101875.86;;;26.38;42.69
60487;BME280;46327;39.866;-0.072;2022-07-12T02:50:41;101875.03;;;26.31;42.71
60487;BME280;46327;39.866;-0.072;2022-07-12T02:53:10;101873.99;;;26.40;42.50
60487;BME280;46327;39.866;-0.072;2022-07-12T02:55:38;101872.34;;;26.28;42.35
60487;BME280;46327;39.866;-0.072;2022-07-12T02:58:06;101869.75;;;26.23;42.30
60487;BME280;46327;39.866;-0.072;2022-07-12T03:00:34;101867.07;;;26.08;42.49
60487;BME280;46327;39.866;-0.072;2022-07-12T03:03:02;101868.11;;;26.05;42.77
60487;BME280;46327;39.866;-0.072;2022-07-12T03:05:29;101862.34;;;26.42;42.01
60487;BME280;46327;39.866;-0.072;2022-07-12T03:07:57;101858.22;;;26.53;41.86
60487;BME280;46327;39.866;-0.072;2022-07-12T03:10:24;101859.28;;;26.19;41.93
60487;BME280;46327;39.866;-0.072;2022-07-12T03:12:51;101857.87;;;26.05;42.05
60487;BME280;46327;39.866;-0.072;2022-07-12T03:15:19;101856.31;;;26.20;42.05
60487;BME280;46327;39.866;-0.072;2022-07-12T03:17:46;101855.18;;;26.20;42.05
60487;BME280;46327;39.866;-0.072;2022-07-12T03:20:14;101855.75;;;26.06;41.96
60487;BME280;46327;39.866;-0.072;2022-07-12T03:22:42;101857.48;;;26.10;41.75
60487;BME280;46327;39.866;-0.072;2022-07-12T03:25:09;101859.15;;;26.06;41.70
60487;BME280;46327;39.866;-0.072;2022-07-12T03:27:36;101862.40;;;26.07;41.21
60487;BME280;46327;39.866;-0.072;2022-07-12T03:30:05;101857.13;;;25.86;41.45
60487;BME280;46327;39.866;-0.072;2022-07-12T03:32:34;101857.23;;;25.76;41.91
60487;BME280;46327;39.866;-0.072;2022-07-12T03:35:01;101859.15;;;25.87;41.44
60487;BME280;46327;39.866;-0.072;2022-07-12T03:37:28;101859.84;;;26.02;41.51
60487;BME280;46327;39.866;-0.072;2022-07-12T03:40:05;101860.40;;;25.69;41.65
60487;BME280;46327;39.866;-0.072;2022-07-12T03:42:33;101863.77;;;25.71;41.47
60487;BME280;46327;39.866;-0.072;2022-07-12T03:45:00;101860.58;;;25.65;41.82
60487;BME280;46327;39.866;-0.072;2022-07-12T03:47:28;101862.49;;;26.11;41.04
60487;BME280;46327;39.866;-0.072;2022-07-12T03:49:56;101864.02;;;26.20;40.81
60487;BME280;46327;39.866;-0.072;2022-07-12T03:52:23;101866.74;;;26.15;40.93
60487;BME280;46327;39.866;-0.072;2022-07-12T03:54:51;101869.35;;;25.96;41.03
60487;BME280;46327;39.866;-0.072;2022-07-12T03:57:18;101869.03;;;25.87;40.88
60487;BME280;46327;39.866;-0.072;2022-07-12T03:59:46;101869.53;;;25.56;41.27
60487;BME280;46327;39.866;-0.072;2022-07-12T04:02:13;101872.85;;;25.23;41.59
60487;BME280;46327;39.866;-0.072;2022-07-12T04:04:41;101875.07;;;25.74;41.09
60487;BME280;46327;39.866;-0.072;2022-07-12T04:07:08;101877.54;;;25.21;41.32
60487;BME280;46327;39.866;-0.072;2022-07-12T04:09:35;101882.80;;;25.27;41.61
60487;BME280;46327;39.866;-0.072;2022-07-12T04:12:03;101884.90;;;25.75;41.24
60487;BME280;46327;39.866;-0.072;2022-07-12T04:14:31;101881.89;;;25.33;40.94
60487;BME280;46327;39.866;-0.072;2022-07-12T04:16:59;101882.20;;;25.37;40.80
60487;BME280;46327;39.866;-0.072;2022-07-12T04:19:26;101878.52;;;25.47;40.63
60487;BME280;46327;39.866;-0.072;2022-07-12T04:21:54;101879.18;;;25.33;40.80
60487;BME280;46327;39.866;-0.072;2022-07-12T04:24:22;101879.58;;;25.33;40.64
60487;BME280;46327;39.866;-0.072;2022-07-12T04:26:49;101875.39;;;25.50;40.28
60487;BME280;46327;39.866;-0.072;2022-07-12T04:29:17;101873.45;;;25.92;39.52
60487;BME280;46327;39.866;-0.072;2022-07-12T04:31:44;101872.43;;;25.94;39.41
60487;BME280;46327;39.866;-0.072;2022-07-12T04:34:11;101874.32;;;25.41;39.93
60487;BME280;46327;39.866;-0.072;2022-07-12T04:36:39;101876.32;;;25.18;40.09
60487;BME280;46327;39.866;-0.072;2022-07-12T04:39:06;101877.93;;;25.40;39.70
60487;BME280;46327;39.866;-0.072;2022-07-12T04:41:34;101877.54;;;25.20;39.87
60487;BME280;46327;39.866;-0.072;2022-07-12T04:44:03;101876.19;;;25.05;39.88
60487;BME280;46327;39.866;-0.072;2022-07-12T04:46:30;101875.27;;;25.16;39.38
60487;BME280;46327;39.866;-0.072;2022-07-12T04:48:57;101872.95;;;25.83;38.73
60487;BME280;46327;39.866;-0.072;2022-07-12T04:51:24;101872.34;;;25.79;38.20
60487;BME280;46327;39.866;-0.072;2022-07-12T04:53:52;101869.51;;;25.92;38.00
60487;BME280;46327;39.866;-0.072;2022-07-12T04:56:19;101869.93;;;26.51;37.43
60487;BME280;46327;39.866;-0.072;2022-07-12T04:58:46;101872.37;;;25.97;37.74
60487;BME280;46327;39.866;-0.072;2022-07-12T05:01:14;101873.42;;;26.26;37.84
60487;BME280;46327;39.866;-0.072;2022-07-12T05:03:41;101877.84;;;25.54;38.35
60487;BME280;46327;39.866;-0.072;2022-07-12T05:06:09;101878.50;;;25.94;37.97
60487;BME280;46327;39.866;-0.072;2022-07-12T05:08:36;101877.13;;;25.57;38.33
60487;BME280;46327;39.866;-0.072;2022-07-12T05:11:04;101881.42;;;25.51;38.67
60487;BME280;46327;39.866;-0.072;2022-07-12T05:13:32;101882.41;;;25.53;38.61
60487;BME280;46327;39.866;-0.072;2022-07-12T05:15:59;101883.34;;;25.67;38.46
60487;BME280;46327;39.866;-0.072;2022-07-12T05:18:27;101888.09;;;25.50;38.59
60487;BME280;46327;39.866;-0.072;2022-07-12T05:20:54;101882.86;;;25.73;38.20
60487;BME280;46327;39.866;-0.072;2022-07-12T05:23:21;101881.36;;;25.63;38.20
60487;BME280;46327;39.866;-0.072;2022-07-12T05:25:48;101884.46;;;25.32;38.57
60487;BME280;46327;39.866;-0.072;2022-07-12T05:28:15;101880.55;;;25.81;38.06
60487;BME280;46327;39.866;-0.072;2022-07-12T05:30:43;101878.69;;;25.77;38.39
60487;BME280;46327;39.866;-0.072;2022-07-12T05:33:11;101875.67;;;25.73;38.56
60487;BME280;46327;39.866;-0.072;2022-07-12T05:35:39;101882.23;;;25.70;38.96
60487;BME280;46327;39.866;-0.072;2022-07-12T05:38:06;101881.38;;;25.47;39.32
60487;BME280;46327;39.866;-0.072;2022-07-12T05:40:34;101883.15;;;25.59;39.33
60487;BME280;46327;39.866;-0.072;2022-07-12T05:43:01;101880.55;;;25.58;39.86
60487;BME280;46327;39.866;-0.072;2022-07-12T05:45:28;101880.69;;;25.52;39.40
60487;BME280;46327;39.866;-0.072;2022-07-12T05:47:55;101880.90;;;25.62;39.30
60487;BME280;46327;39.866;-0.072;2022-07-12T05:50:23;101880.30;;;25.21;39.73
60487;BME280;46327;39.866;-0.072;2022-07-12T05:52:50;101881.32;;;25.48;39.28
60487;BME280;46327;39.866;-0.072;2022-07-12T05:55:18;101883.10;;;25.36;39.23
60487;BME280;46327;39.866;-0.072;2022-07-12T05:57:45;101883.31;;;25.66;38.60
60487;BME280;46327;39.866;-0.072;2022-07-12T06:00:13;101890.32;;;25.52;38.46
60487;BME280;46327;39.866;-0.072;2022-07-12T06:02:41;101894.38;;;25.79;38.38
60487;BME280;46327;39.866;-0.072;2022-07-12T06:05:08;101894.07;;;25.22;38.81
60487;BME280;46327;39.866;-0.072;2022-07-12T06:07:36;101893.29;;;25.89;37.99
60487;BME280;46327;39.866;-0.072;2022-07-12T06:10:04;101894.67;;;26.12;37.73
60487;BME280;46327;39.866;-0.072;2022-07-12T06:12:31;101897.80;;;25.65;38.12
60487;BME280;46327;39.866;-0.072;2022-07-12T06:14:59;101896.50;;;26.31;37.54
60487;BME280;46327;39.866;-0.072;2022-07-12T06:17:26;101898.08;;;26.35;36.65
60487;BME280;46327;39.866;-0.072;2022-07-12T06:19:53;101896.37;;;26.58;36.25
60487;BME280;46327;39.866;-0.072;2022-07-12T06:22:20;101896.74;;;26.09;36.73
60487;BME280;46327;39.866;-0.072;2022-07-12T06:24:47;101899.98;;;26.28;36.49
60487;BME280;46327;39.866;-0.072;2022-07-12T06:27:14;101901.20;;;26.18;36.73
60487;BME280;46327;39.866;-0.072;2022-07-12T06:29:42;101906.05;;;26.34;36.48
60487;BME280;46327;39.866;-0.072;2022-07-12T06:32:08;101903.27;;;26.32;36.74
60487;BME280;46327;39.866;-0.072;2022-07-12T06:34:37;101903.94;;;26.08;37.14
60487;BME280;46327;39.866;-0.072;2022-07-12T06:37:04;101906.99;;;26.41;37.28
60487;BME280;46327;39.866;-0.072;2022-07-12T06:39:31;101909.81;;;26.57;37.26
60487;BME280;46327;39.866;-0.072;2022-07-12T06:41:58;101916.98;;;26.52;37.46
60487;BME280;46327;39.866;-0.072;2022-07-12T06:44:25;101919.46;;;26.56;37.23
60487;BME280;46327;39.866;-0.072;2022-07-12T06:46:52;101920.60;;;26.68;37.19
60487;BME280;46327;39.866;-0.072;2022-07-12T06:49:20;101925.71;;;26.76;37.29
60487;BME280;46327;39.866;-0.072;2022-07-12T06:51:47;101929.46;;;26.60;37.40
60487;BME280;46327;39.866;-0.072;2022-07-12T06:54:15;101931.34;;;26.97;37.44
60487;BME280;46327;39.866;-0.072;2022-07-12T06:56:41;101933.09;;;27.38;37.68
60487;BME280;46327;39.866;-0.072;2022-07-12T06:59:09;101934.62;;;27.34;37.89
60487;BME280;46327;39.866;-0.072;2022-07-12T07:01:36;101934.57;;;27.22;37.95
60487;BME280;46327;39.866;-0.072;2022-07-12T07:04:03;101933.23;;;27.07;37.89
60487;BME280;46327;39.866;-0.072;2022-07-12T07:06:31;101936.56;;;27.52;37.69
60487;BME280;46327;39.866;-0.072;2022-07-12T07:08:58;101936.97;;;27.23;37.07
60487;BME280;46327;39.866;-0.072;2022-07-12T07:11:25;101940.07;;;27.32;37.30
60487;BME280;46327;39.866;-0.072;2022-07-12T07:13:53;101941.46;;;27.44;37.24
60487;BME280;46327;39.866;-0.072;2022-07-12T07:16:20;101945.66;;;27.73;37.20
60487;BME280;46327;39.866;-0.072;2022-07-12T07:18:47;101946.07;;;27.40;37.31
60487;BME280;46327;39.866;-0.072;2022-07-12T07:21:15;101948.96;;;27.41;37.42
60487;BME280;46327;39.866;-0.072;2022-07-12T07:23:42;101952.81;;;27.66;36.66
60487;BME280;46327;39.866;-0.072;2022-07-12T07:26:10;101951.36;;;27.58;36.93
60487;BME280;46327;39.866;-0.072;2022-07-12T07:28:37;101951.93;;;27.06;37.87
60487;BME280;46327;39.866;-0.072;2022-07-12T07:31:04;101953.67;;;27.06;37.92
60487;BME280;46327;39.866;-0.072;2022-07-12T07:33:32;101954.35;;;26.38;38.36
60487;BME280;46327;39.866;-0.072;2022-07-12T07:35:59;101954.68;;;26.63;38.63
60487;BME280;46327;39.866;-0.072;2022-07-12T07:38:26;101961.34;;;26.60;38.70
60487;BME280;46327;39.866;-0.072;2022-07-12T07:40:53;101962.99;;;26.60;38.91
60487;BME280;46327;39.866;-0.072;2022-07-12T07:43:20;101966.13;;;26.77;38.77
60487;BME280;46327;39.866;-0.072;2022-07-12T07:45:47;101967.62;;;27.06;38.92
60487;BME280;46327;39.866;-0.072;2022-07-12T07:48:16;101969.68;;;26.84;39.03
60487;BME280;46327;39.866;-0.072;2022-07-12T07:50:43;101974.69;;;26.95;38.61
60487;BME280;46327;39.866;-0.072;2022-07-12T07:53:11;101974.50;;;26.78;39.42
60487;BME280;46327;39.866;-0.072;2022-07-12T07:55:38;101974.92;;;26.83;39.43
60487;BME280;46327;39.866;-0.072;2022-07-12T07:58:06;101977.34;;;26.88;39.59
60487;BME280;46327;39.866;-0.072;2022-07-12T08:00:33;101979.85;;;26.68;39.95
60487;BME280;46327;39.866;-0.072;2022-07-12T08:03:01;101981.60;;;26.89;39.75
60487;BME280;46327;39.866;-0.072;2022-07-12T08:05:28;101981.20;;;27.00;39.57
60487;BME280;46327;39.866;-0.072;2022-07-12T08:07:56;101979.34;;;26.74;39.75
60487;BME280;46327;39.866;-0.072;2022-07-12T08:10:23;101981.66;;;26.97;39.89
60487;BME280;46327;39.866;-0.072;2022-07-12T08:12:50;101981.59;;;27.02;39.86
60487;BME280;46327;39.866;-0.072;2022-07-12T08:15:18;101978.62;;;26.80;40.02
60487;BME280;46327;39.866;-0.072;2022-07-12T08:17:45;101977.81;;;26.56;40.17
60487;BME280;46327;39.866;-0.072;2022-07-12T08:20:12;101978.42;;;26.65;40.23
60487;BME280;46327;39.866;-0.072;2022-07-12T08:22:43;101977.81;;;26.85;40.48
60487;BME280;46327;39.866;-0.072;2022-07-12T08:25:11;101982.88;;;27.02;40.89
60487;BME280;46327;39.866;-0.072;2022-07-12T08:27:38;101982.15;;;26.92;40.97
60487;BME280;46327;39.866;-0.072;2022-07-12T08:30:06;101983.43;;;26.75;41.30
60487;BME280;46327;39.866;-0.072;2022-07-12T08:32:33;101988.10;;;26.58;41.16
60487;BME280;46327;39.866;-0.072;2022-07-12T08:35:01;101986.36;;;27.11;40.82
60487;BME280;46327;39.866;-0.072;2022-07-12T08:37:28;101983.65;;;27.08;41.38
60487;BME280;46327;39.866;-0.072;2022-07-12T08:39:55;101982.97;;;26.67;42.12
60487;BME280;46327;39.866;-0.072;2022-07-12T08:42:23;101983.84;;;26.76;42.56
60487;BME280;46327;39.866;-0.072;2022-07-12T08:44:54;101983.97;;;27.07;42.05
60487;BME280;46327;39.866;-0.072;2022-07-12T08:47:21;101985.81;;;27.30;41.99
60487;BME280;46327;39.866;-0.072;2022-07-12T08:50:23;101985.57;;;27.06;42.31
60487;BME280;46327;39.866;-0.072;2022-07-12T08:52:51;101985.07;;;27.49;42.67
60487;BME280;46327;39.866;-0.072;2022-07-12T08:55:21;101986.29;;;27.43;42.62
60487;BME280;46327;39.866;-0.072;2022-07-12T08:57:51;101993.13;;;27.65;42.75
60487;BME280;46327;39.866;-0.072;2022-07-12T09:00:18;101993.46;;;27.60;42.07
60487;BME280;46327;39.866;-0.072;2022-07-12T09:02:48;101994.61;;;27.45;41.95
60487;BME280;46327;39.866;-0.072;2022-07-12T09:05:18;101996.78;;;27.12;41.79
60487;BME280;46327;39.866;-0.072;2022-07-12T09:07:46;101999.51;;;27.12;42.02
60487;BME280;46327;39.866;-0.072;2022-07-12T09:10:14;102001.92;;;27.32;42.09
60487;BME280;46327;39.866;-0.072;2022-07-12T09:12:42;101998.93;;;27.24;42.66
60487;BME280;46327;39.866;-0.072;2022-07-12T09:15:12;102001.60;;;27.35;42.84
60487;BME280;46327;39.866;-0.072;2022-07-12T09:17:45;102002.17;;;27.42;43.49
60487;BME280;46327;39.866;-0.072;2022-07-12T09:20:12;102003.45;;;27.55;44.11
60487;BME280;46327;39.866;-0.072;2022-07-12T09:22:51;102006.22;;;27.25;44.20
60487;BME280;46327;39.866;-0.072;2022-07-12T09:25:19;102007.36;;;27.35;44.49
60487;BME280;46327;39.866;-0.072;2022-07-12T09:27:50;102007.36;;;27.04;44.84
60487;BME280;46327;39.866;-0.072;2022-07-12T09:30:18;102008.06;;;27.32;44.95
60487;BME280;46327;39.866;-0.072;2022-07-12T09:32:55;102010.98;;;27.37;45.03
60487;BME280;46327;39.866;-0.072;2022-07-12T09:35:24;102005.45;;;27.46;45.51
60487;BME280;46327;39.866;-0.072;2022-07-12T09:37:51;102008.96;;;27.32;45.95
60487;BME280;46327;39.866;-0.072;2022-07-12T09:40:20;102007.81;;;27.29;45.45
60487;BME280;46327;39.866;-0.072;2022-07-12T09:42:48;102006.92;;;27.38;46.02
60487;BME280;46327;39.866;-0.072;2022-07-12T09:45:17;102011.73;;;27.43;45.98
60487;BME280;46327;39.866;-0.072;2022-07-12T09:47:47;102016.08;;;27.61;47.12
60487;BME280;46327;39.866;-0.072;2022-07-12T09:50:16;102017.76;;;27.16;47.04
60487;BME280;46327;39.866;-0.072;2022-07-12T09:52:45;102023.38;;;27.21;47.84
60487;BME280;46327;39.866;-0.072;2022-07-12T09:55:17;102023.13;;;27.18;48.56
60487;BME280;46327;39.866;-0.072;2022-07-12T09:57:46;102029.28;;;27.56;47.79
60487;BME280;46327;39.866;-0.072;2022-07-12T10:00:14;102028.97;;;27.40;48.60
60487;BME280;46327;39.866;-0.072;2022-07-12T10:02:42;102030.14;;;27.59;48.22
60487;BME280;46327;39.866;-0.072;2022-07-12T10:05:10;102027.81;;;27.08;48.71
60487;BME280;46327;39.866;-0.072;2022-07-12T10:07:38;102029.81;;;27.04;48.56
60487;BME280;46327;39.866;-0.072;2022-07-12T10:10:08;102035.74;;;26.80;48.47
60487;BME280;46327;39.866;-0.072;2022-07-12T10:12:37;102036.78;;;27.02;48.51
60487;BME280;46327;39.866;-0.072;2022-07-12T10:15:15;102038.13;;;27.13;48.33
60487;BME280;46327;39.866;-0.072;2022-07-12T10:17:50;102043.12;;;27.05;48.47
60487;BME280;46327;39.866;-0.072;2022-07-12T10:20:19;102045.24;;;27.27;47.94
60487;BME280;46327;39.866;-0.072;2022-07-12T10:22:47;102040.79;;;27.32;48.04
60487;BME280;46327;39.866;-0.072;2022-07-12T10:25:31;102044.64;;;27.15;48.00
60487;BME280;46327;39.866;-0.072;2022-07-12T10:28:00;102047.11;;;27.07;48.17
60487;BME280;46327;39.866;-0.072;2022-07-12T10:30:28;102043.24;;;27.14;48.08
60487;BME280;46327;39.866;-0.072;2022-07-12T10:32:56;102046.19;;;27.12;48.13
60487;BME280;46327;39.866;-0.072;2022-07-12T10:35:26;102048.60;;;27.15;48.00
60487;BME280;46327;39.866;-0.072;2022-07-12T10:38:28;102046.96;;;26.87;48.05
60487;BME280;46327;39.866;-0.072;2022-07-12T10:40:56;102051.40;;;27.22;48.09
60487;BME280;46327;39.866;-0.072;2022-07-12T10:43:26;102050.52;;;27.26;47.82
60487;BME280;46327;39.866;-0.072;2022-07-12T10:45:54;102049.31;;;27.12;48.08
60487;BME280;46327;39.866;-0.072;2022-07-12T10:48:31;102049.55;;;27.14;48.09
60487;BME280;46327;39.866;-0.072;2022-07-12T10:50:58;102051.50;;;27.19;48.01
60487;BME280;46327;39.866;-0.072;2022-07-12T10:53:30;102053.51;;;27.19;47.97
60487;BME280;46327;39.866;-0.072;2022-07-12T10:56:15;102054.83;;;27.60;48.12
60487;BME280;46327;39.866;-0.072;2022-07-12T10:58:44;102056.31;;;27.34;48.04
60487;BME280;46327;39.866;-0.072;2022-07-12T11:01:14;102054.03;;;27.42;47.82
60487;BME280;46327;39.866;-0.072;2022-07-12T11:03:43;102060.57;;;27.31;47.99
60487;BME280;46327;39.866;-0.072;2022-07-12T11:06:12;102059.70;;;27.28;48.03
60487;BME280;46327;39.866;-0.072;2022-07-12T11:08:50;102060.82;;;27.34;47.93
60487;BME280;46327;39.866;-0.072;2022-07-12T11:11:18;102061.54;;;27.28;48.10
60487;BME280;46327;39.866;-0.072;2022-07-12T11:13:46;102063.12;;;27.31;48.23
60487;BME280;46327;39.866;-0.072;2022-07-12T11:16:14;102059.20;;;27.08;48.30
60487;BME280;46327;39.866;-0.072;2022-07-12T11:18:41;102057.29;;;27.28;48.34
60487;BME280;46327;39.866;-0.072;2022-07-12T11:21:09;102058.29;;;27.35;48.33
60487;BME280;46327;39.866;-0.072;2022-07-12T11:23:38;102061.37;;;27.49;48.58
60487;BME280;46327;39.866;-0.072;2022-07-12T11:26:05;102059.21;;;26.91;48.65
60487;BME280;46327;39.866;-0.072;2022-07-12T11:28:33;102063.08;;;27.42;48.84
60487;BME280;46327;39.866;-0.072;2022-07-12T11:31:03;102058.91;;;26.99;48.67
60487;BME280;46327;39.866;-0.072;2022-07-12T11:33:31;102060.91;;;27.23;49.00
60487;BME280;46327;39.866;-0.072;2022-07-12T11:36:03;102058.28;;;27.25;49.41
60487;BME280;46327;39.866;-0.072;2022-07-12T11:38:33;102060.31;;;27.53;48.90
60487;BME280;46327;39.866;-0.072;2022-07-12T11:41:03;102056.15;;;27.84;48.23
60487;BME280;46327;39.866;-0.072;2022-07-12T11:43:32;102056.66;;;28.20;47.13
60487;BME280;46327;39.866;-0.072;2022-07-12T11:46:00;102054.46;;;28.60;46.79
60487;BME280;46327;39.866;-0.072;2022-07-12T11:48:28;102050.74;;;28.47;47.06
60487;BME280;46327;39.866;-0.072;2022-07-12T11:50:56;102048.72;;;28.81;46.86
60487;BME280;46327;39.866;-0.072;2022-07-12T11:53:24;102044.70;;;28.57;46.50
60487;BME280;46327;39.866;-0.072;2022-07-12T11:55:54;102042.46;;;28.97;46.49
60487;BME280;46327;39.866;-0.072;2022-07-12T11:58:24;102040.08;;;28.57;46.66
60487;BME280;46327;39.866;-0.072;2022-07-12T12:00:52;102039.47;;;28.81;46.72
60487;BME280;46327;39.866;-0.072;2022-07-12T12:03:21;102041.37;;;28.98;46.70
60487;BME280;46327;39.866;-0.072;2022-07-12T12:05:49;102041.22;;;28.83;46.85
60487;BME280;46327;39.866;-0.072;2022-07-12T12:08:17;102046.59;;;29.30;46.47
60487;BME280;46327;39.866;-0.072;2022-07-12T12:10:53;102042.94;;;29.34;46.18
60487;BME280;46327;39.866;-0.072;2022-07-12T12:13:21;102047.94;;;28.72;46.47
60487;BME280;46327;39.866;-0.072;2022-07-12T12:15:50;102047.42;;;28.93;46.47
60487;BME280;46327;39.866;-0.072;2022-07-12T12:18:37;102048.87;;;28.95;46.23
60487;BME280;46327;39.866;-0.072;2022-07-12T12:21:06;102046.41;;;29.37;46.07
60487;BME280;46327;39.866;-0.072;2022-07-12T12:23:34;102048.60;;;29.48;45.82
60487;BME280;46327;39.866;-0.072;2022-07-12T12:26:11;102047.62;;;29.45;45.96
60487;BME280;46327;39.866;-0.072;2022-07-12T12:28:44;102048.49;;;29.40;46.09
60487;BME280;46327;39.866;-0.072;2022-07-12T12:31:12;102044.04;;;29.26;46.30
60487;BME280;46327;39.866;-0.072;2022-07-12T12:33:42;102040.88;;;29.48;46.27
60487;BME280;46327;39.866;-0.072;2022-07-12T12:36:19;102038.99;;;29.38;46.25
60487;BME280;46327;39.866;-0.072;2022-07-12T12:38:48;102039.92;;;29.65;46.14
60487;BME280;46327;39.866;-0.072;2022-07-12T12:41:15;102036.71;;;29.58;46.47
60487;BME280;46327;39.866;-0.072;2022-07-12T12:43:43;102039.54;;;29.27;46.35
60487;BME280;46327;39.866;-0.072;2022-07-12T12:46:11;102039.61;;;29.28;46.73